Ana Sayfa
METAR-TAF:

METAR-TAF

Havaalanları :

Asheboro Regional Airport

Asheboro, Kuzey Carolina, Amerika Birleşik Devletleri

Enlem: 35-39-14N, Boylam: 079-53-42W, yükseklik: 205 m

Güncel hava durumu gözlemi

Rapor saat 20:25 UTC de 5 dakika önce yapıldı.
Rüzgar güneydan 8 kt
Sıcaklık 30°C
Nem 43%
Basınç 1017 hPa
Görüş mesafesi: 16.1 km
5500 ft yükseklikte parçalı bulutlu

METAR: KHBI 192025Z AUTO 18008KT 10SM SCT055 30/16 A3004 RMK AO2 T03020160

Saat: 16:30 (20:30 UTC)


TAF: eksik

4.000'den fazla havaalanı için hava durumu gözlemleri ve tahminleri (METAR ve TAF raporları).

Kullanılabilir istasyonlar harita üzerinde sarı ve kırmızı noktalarla gösterilir.

İstasyonun adını görmek için fareyi noktanın üzerinde gezdirin.

Sonrasında hava gözlem ve tahminlerini görmek için tıklayın.

Haritayı değiştirmek için: yaklaştırmak için siyah artı işaretli yeşil düğmeye ve uzaklaştırmak için de eksi işaretli düğmeye hızla tıklayın; bitişik haritalar için yeşil okları kullanın.


METAR-TAF: